This is the latest recevied weather packets stored in our database for station/object YO8SHU-10. If no packets are shown the sender has not sent any weather packets the latest 10 day(s).
| Time | Temp. | Humidity | Pressure | Rain* | Wind** | Luminosity | Snow |
|---|---|---|---|---|---|---|---|
| 1777798822 | 15.56° C | 47% | 1028.9 hPa | - | - | - | - |
| 1777797022 | 15° C | 47% | 1029 hPa | - | - | - | - |
| 1777795222 | 14.44° C | 50% | 1029.1 hPa | - | - | - | - |
| 1777793422 | 13.89° C | 67% | 1029.2 hPa | - | - | - | - |
| 1777791622 | 12.22° C | 77% | 1029.3 hPa | - | - | - | - |
| 1777789822 | 11.67° C | 80% | 1029.2 hPa | - | - | - | - |
| 1777788021 | 10° C | 86% | 1029.3 hPa | - | - | - | - |
| 1777786221 | 8.89° C | 89% | 1029.3 hPa | - | - | - | - |
| 1777784421 | 10° C | 78% | 1029.1 hPa | - | - | - | - |
| 1777782621 | 10.56° C | 72% | 1029.1 hPa | - | - | - | - |
| 1777780821 | 8.33° C | 84% | 1028.9 hPa | - | - | - | - |
| 1777779021 | 5.56° C | 91% | 1028.7 hPa | - | - | - | - |
| 1777777221 | 1.67° C | 100% | 1028.7 hPa | - | - | - | - |
| 1777775421 | 1.67° C | 100% | 1028.6 hPa | - | - | - | - |
| 1777773621 | 2.22° C | 100% | 1028.5 hPa | - | - | - | - |
| 1777771821 | 2.22° C | 100% | 1028.6 hPa | - | - | - | - |
| 1777770020 | 2.78° C | 100% | 1028.6 hPa | - | - | - | - |
| 1777768220 | 2.78° C | 100% | 1028.6 hPa | - | - | - | - |
| 1777766420 | 2.78° C | 99% | 1028.6 hPa | - | - | - | - |
| 1777764620 | 3.33° C | 100% | 1028.6 hPa | - | - | - | - |
| 1777762820 | 3.89° C | 100% | 1028.9 hPa | - | - | - | - |
| 1777761020 | 4.44° C | 100% | 1028.9 hPa | - | - | - | - |
| 1777759220 | 5.56° C | 100% | 1029.1 hPa | - | - | - | - |
| 1777757420 | 5.56° C | 100% | 1029.2 hPa | - | - | - | - |
| 1777755620 | 6.11° C | 94% | 1029.2 hPa | - | - | - | - |
* Rain since midnight (hover to see other rain measurements)
** Current wind speed in m/s (hover to see current wind gust speed)